sensor_id;sensor_type;location;lat;lon;timestamp;P1;durP1;ratioP1;P2;durP2;ratioP2
42098;SDS011;27758;55.900;8.516;2023-04-07T00:00:43;20.90;;;13.07;;
42098;SDS011;27758;55.900;8.516;2023-04-07T00:03:08;19.20;;;11.90;;
42098;SDS011;27758;55.900;8.516;2023-04-07T00:05:35;21.58;;;12.63;;
42098;SDS011;27758;55.900;8.516;2023-04-07T00:08:01;19.35;;;12.48;;
42098;SDS011;27758;55.900;8.516;2023-04-07T00:10:26;21.45;;;12.70;;
42098;SDS011;27758;55.900;8.516;2023-04-07T00:12:52;18.85;;;11.98;;
42098;SDS011;27758;55.900;8.516;2023-04-07T00:15:18;25.30;;;13.32;;
42098;SDS011;27758;55.900;8.516;2023-04-07T00:17:44;23.63;;;13.48;;
42098;SDS011;27758;55.900;8.516;2023-04-07T00:20:10;23.00;;;12.82;;
42098;SDS011;27758;55.900;8.516;2023-04-07T00:22:36;21.83;;;12.32;;
42098;SDS011;27758;55.900;8.516;2023-04-07T00:25:02;18.67;;;12.35;;
42098;SDS011;27758;55.900;8.516;2023-04-07T00:27:27;20.95;;;12.20;;
42098;SDS011;27758;55.900;8.516;2023-04-07T00:29:53;21.33;;;12.32;;
42098;SDS011;27758;55.900;8.516;2023-04-07T00:32:19;22.73;;;13.05;;
42098;SDS011;27758;55.900;8.516;2023-04-07T00:34:46;24.58;;;13.95;;
42098;SDS011;27758;55.900;8.516;2023-04-07T00:37:12;22.17;;;12.52;;
42098;SDS011;27758;55.900;8.516;2023-04-07T00:39:38;29.98;;;13.00;;
42098;SDS011;27758;55.900;8.516;2023-04-07T00:42:04;22.30;;;14.35;;
42098;SDS011;27758;55.900;8.516;2023-04-07T00:44:31;23.67;;;13.90;;
42098;SDS011;27758;55.900;8.516;2023-04-07T00:46:57;21.02;;;13.20;;
42098;SDS011;27758;55.900;8.516;2023-04-07T00:49:24;24.17;;;14.48;;
42098;SDS011;27758;55.900;8.516;2023-04-07T00:51:52;19.63;;;13.27;;
42098;SDS011;27758;55.900;8.516;2023-04-07T00:54:20;20.65;;;12.93;;
42098;SDS011;27758;55.900;8.516;2023-04-07T00:56:47;20.90;;;12.68;;
42098;SDS011;27758;55.900;8.516;2023-04-07T00:59:13;21.77;;;13.52;;
42098;SDS011;27758;55.900;8.516;2023-04-07T01:01:43;22.15;;;13.70;;
42098;SDS011;27758;55.900;8.516;2023-04-07T01:04:32;24.02;;;14.15;;
42098;SDS011;27758;55.900;8.516;2023-04-07T01:07:08;23.77;;;13.90;;
42098;SDS011;27758;55.900;8.516;2023-04-07T01:09:41;19.67;;;12.80;;
42098;SDS011;27758;55.900;8.516;2023-04-07T01:12:56;24.42;;;13.30;;
42098;SDS011;27758;55.900;8.516;2023-04-07T01:15:08;22.17;;;12.90;;
42098;SDS011;27758;55.900;8.516;2023-04-07T01:17:41;18.10;;;12.35;;
42098;SDS011;27758;55.900;8.516;2023-04-07T01:20:13;23.95;;;13.25;;
42098;SDS011;27758;55.900;8.516;2023-04-07T01:22:42;20.08;;;11.73;;
42098;SDS011;27758;55.900;8.516;2023-04-07T01:31:35;21.42;;;11.57;;
42098;SDS011;27758;55.900;8.516;2023-04-07T01:34:05;20.17;;;11.68;;
42098;SDS011;27758;55.900;8.516;2023-04-07T01:36:33;20.02;;;12.68;;
42098;SDS011;27758;55.900;8.516;2023-04-07T01:38:59;20.67;;;12.40;;
42098;SDS011;27758;55.900;8.516;2023-04-07T01:41:26;21.60;;;13.18;;
42098;SDS011;27758;55.900;8.516;2023-04-07T01:43:52;20.60;;;12.55;;
42098;SDS011;27758;55.900;8.516;2023-04-07T01:46:19;21.20;;;12.02;;
42098;SDS011;27758;55.900;8.516;2023-04-07T01:48:46;19.83;;;11.30;;
42098;SDS011;27758;55.900;8.516;2023-04-07T01:51:13;29.10;;;12.50;;
42098;SDS011;27758;55.900;8.516;2023-04-07T01:53:45;19.83;;;12.07;;
42098;SDS011;27758;55.900;8.516;2023-04-07T01:56:12;22.40;;;10.88;;
42098;SDS011;27758;55.900;8.516;2023-04-07T01:58:38;20.25;;;11.02;;
42098;SDS011;27758;55.900;8.516;2023-04-07T02:01:04;22.13;;;12.95;;
42098;SDS011;27758;55.900;8.516;2023-04-07T02:03:33;16.75;;;11.38;;
42098;SDS011;27758;55.900;8.516;2023-04-07T02:06:07;22.55;;;12.23;;
42098;SDS011;27758;55.900;8.516;2023-04-07T02:08:35;21.92;;;11.80;;
42098;SDS011;27758;55.900;8.516;2023-04-07T02:13:32;21.45;;;11.32;;
42098;SDS011;27758;55.900;8.516;2023-04-07T02:15:59;25.92;;;13.02;;
42098;SDS011;27758;55.900;8.516;2023-04-07T02:18:26;18.35;;;10.65;;
42098;SDS011;27758;55.900;8.516;2023-04-07T02:20:54;20.98;;;12.15;;
42098;SDS011;27758;55.900;8.516;2023-04-07T02:23:21;19.70;;;10.55;;
42098;SDS011;27758;55.900;8.516;2023-04-07T02:25:47;21.45;;;11.38;;
42098;SDS011;27758;55.900;8.516;2023-04-07T02:28:12;21.70;;;12.52;;
42098;SDS011;27758;55.900;8.516;2023-04-07T02:30:38;18.20;;;12.43;;
42098;SDS011;27758;55.900;8.516;2023-04-07T02:33:04;20.98;;;12.00;;
42098;SDS011;27758;55.900;8.516;2023-04-07T02:35:30;24.08;;;12.40;;
42098;SDS011;27758;55.900;8.516;2023-04-07T02:37:55;20.50;;;11.15;;
42098;SDS011;27758;55.900;8.516;2023-04-07T02:40:21;24.33;;;11.93;;
42098;SDS011;27758;55.900;8.516;2023-04-07T02:42:47;19.58;;;11.23;;
42098;SDS011;27758;55.900;8.516;2023-04-07T02:45:12;25.25;;;11.43;;
42098;SDS011;27758;55.900;8.516;2023-04-07T02:47:38;23.58;;;10.98;;
42098;SDS011;27758;55.900;8.516;2023-04-07T02:50:04;18.67;;;11.32;;
42098;SDS011;27758;55.900;8.516;2023-04-07T02:52:31;17.42;;;10.85;;
42098;SDS011;27758;55.900;8.516;2023-04-07T02:54:56;22.88;;;10.25;;
42098;SDS011;27758;55.900;8.516;2023-04-07T02:57:22;24.77;;;11.23;;
42098;SDS011;27758;55.900;8.516;2023-04-07T02:59:48;23.40;;;11.73;;
42098;SDS011;27758;55.900;8.516;2023-04-07T03:02:13;19.75;;;11.70;;
42098;SDS011;27758;55.900;8.516;2023-04-07T03:04:39;24.08;;;11.68;;
42098;SDS011;27758;55.900;8.516;2023-04-07T03:07:05;18.38;;;10.70;;
42098;SDS011;27758;55.900;8.516;2023-04-07T03:09:31;18.15;;;11.30;;
42098;SDS011;27758;55.900;8.516;2023-04-07T03:11:56;18.65;;;11.38;;
42098;SDS011;27758;55.900;8.516;2023-04-07T03:14:22;19.73;;;10.88;;
42098;SDS011;27758;55.900;8.516;2023-04-07T03:16:48;19.50;;;11.30;;
42098;SDS011;27758;55.900;8.516;2023-04-07T03:19:13;20.95;;;10.82;;
42098;SDS011;27758;55.900;8.516;2023-04-07T03:21:40;19.90;;;10.27;;
42098;SDS011;27758;55.900;8.516;2023-04-07T03:24:06;23.35;;;10.93;;
42098;SDS011;27758;55.900;8.516;2023-04-07T03:26:32;17.38;;;10.68;;
42098;SDS011;27758;55.900;8.516;2023-04-07T03:28:58;27.80;;;11.82;;
42098;SDS011;27758;55.900;8.516;2023-04-07T03:31:24;20.20;;;11.20;;
42098;SDS011;27758;55.900;8.516;2023-04-07T03:33:49;22.92;;;12.05;;
42098;SDS011;27758;55.900;8.516;2023-04-07T03:36:15;22.55;;;11.07;;
42098;SDS011;27758;55.900;8.516;2023-04-07T03:38:45;25.98;;;10.75;;
42098;SDS011;27758;55.900;8.516;2023-04-07T03:41:11;16.27;;;9.75;;
42098;SDS011;27758;55.900;8.516;2023-04-07T03:43:37;15.88;;;10.85;;
42098;SDS011;27758;55.900;8.516;2023-04-07T03:46:03;23.65;;;10.63;;
42098;SDS011;27758;55.900;8.516;2023-04-07T03:48:29;21.13;;;10.65;;
42098;SDS011;27758;55.900;8.516;2023-04-07T03:50:55;18.23;;;10.60;;
42098;SDS011;27758;55.900;8.516;2023-04-07T03:53:21;18.83;;;10.75;;
42098;SDS011;27758;55.900;8.516;2023-04-07T03:55:47;17.10;;;9.88;;
42098;SDS011;27758;55.900;8.516;2023-04-07T03:58:12;28.38;;;10.70;;
42098;SDS011;27758;55.900;8.516;2023-04-07T04:00:38;16.98;;;9.55;;
42098;SDS011;27758;55.900;8.516;2023-04-07T04:03:04;19.60;;;11.07;;
42098;SDS011;27758;55.900;8.516;2023-04-07T04:05:30;18.17;;;10.48;;
42098;SDS011;27758;55.900;8.516;2023-04-07T04:07:56;27.80;;;10.52;;
42098;SDS011;27758;55.900;8.516;2023-04-07T04:10:21;19.38;;;10.23;;
42098;SDS011;27758;55.900;8.516;2023-04-07T04:12:47;20.83;;;10.00;;
42098;SDS011;27758;55.900;8.516;2023-04-07T04:15:16;16.17;;;9.57;;
42098;SDS011;27758;55.900;8.516;2023-04-07T04:17:42;21.52;;;9.75;;
42098;SDS011;27758;55.900;8.516;2023-04-07T04:20:08;18.83;;;10.90;;
42098;SDS011;27758;55.900;8.516;2023-04-07T04:22:34;14.82;;;9.60;;
42098;SDS011;27758;55.900;8.516;2023-04-07T04:25:00;17.75;;;9.63;;
42098;SDS011;27758;55.900;8.516;2023-04-07T04:27:26;20.20;;;10.10;;
42098;SDS011;27758;55.900;8.516;2023-04-07T04:29:52;17.08;;;8.65;;
42098;SDS011;27758;55.900;8.516;2023-04-07T04:32:18;18.05;;;9.90;;
42098;SDS011;27758;55.900;8.516;2023-04-07T04:34:44;18.63;;;9.68;;
42098;SDS011;27758;55.900;8.516;2023-04-07T04:37:09;20.20;;;9.88;;
42098;SDS011;27758;55.900;8.516;2023-04-07T04:39:35;20.30;;;9.43;;
42098;SDS011;27758;55.900;8.516;2023-04-07T04:42:01;19.33;;;9.73;;
42098;SDS011;27758;55.900;8.516;2023-04-07T04:44:28;20.17;;;9.77;;
42098;SDS011;27758;55.900;8.516;2023-04-07T04:46:54;19.90;;;10.30;;
42098;SDS011;27758;55.900;8.516;2023-04-07T04:49:20;15.50;;;9.57;;
42098;SDS011;27758;55.900;8.516;2023-04-07T04:51:46;16.17;;;9.35;;
42098;SDS011;27758;55.900;8.516;2023-04-07T04:54:12;24.08;;;10.75;;
42098;SDS011;27758;55.900;8.516;2023-04-07T04:56:38;17.58;;;10.27;;
42098;SDS011;27758;55.900;8.516;2023-04-07T04:59:04;21.45;;;10.40;;
42098;SDS011;27758;55.900;8.516;2023-04-07T05:01:30;18.02;;;9.25;;
42098;SDS011;27758;55.900;8.516;2023-04-07T05:03:55;18.70;;;9.93;;
42098;SDS011;27758;55.900;8.516;2023-04-07T05:06:21;21.05;;;9.50;;
42098;SDS011;27758;55.900;8.516;2023-04-07T05:08:47;16.73;;;9.35;;
42098;SDS011;27758;55.900;8.516;2023-04-07T05:11:13;18.40;;;8.98;;
42098;SDS011;27758;55.900;8.516;2023-04-07T05:13:38;15.70;;;9.00;;
42098;SDS011;27758;55.900;8.516;2023-04-07T05:16:04;24.58;;;10.02;;
42098;SDS011;27758;55.900;8.516;2023-04-07T05:18:31;21.55;;;9.30;;
42098;SDS011;27758;55.900;8.516;2023-04-07T05:20:56;17.85;;;9.35;;
42098;SDS011;27758;55.900;8.516;2023-04-07T05:23:22;19.95;;;9.23;;
42098;SDS011;27758;55.900;8.516;2023-04-07T05:25:48;21.75;;;9.10;;
42098;SDS011;27758;55.900;8.516;2023-04-07T05:28:14;22.27;;;9.05;;
42098;SDS011;27758;55.900;8.516;2023-04-07T05:30:40;13.60;;;8.23;;
42098;SDS011;27758;55.900;8.516;2023-04-07T05:33:06;15.75;;;8.85;;
42098;SDS011;27758;55.900;8.516;2023-04-07T05:35:32;22.70;;;10.38;;
42098;SDS011;27758;55.900;8.516;2023-04-07T05:37:57;21.38;;;8.40;;
42098;SDS011;27758;55.900;8.516;2023-04-07T05:40:23;16.42;;;8.57;;
42098;SDS011;27758;55.900;8.516;2023-04-07T05:42:49;17.65;;;8.07;;
42098;SDS011;27758;55.900;8.516;2023-04-07T05:45:15;13.20;;;7.95;;
42098;SDS011;27758;55.900;8.516;2023-04-07T05:47:41;17.90;;;8.82;;
42098;SDS011;27758;55.900;8.516;2023-04-07T05:50:06;22.83;;;8.82;;
42098;SDS011;27758;55.900;8.516;2023-04-07T05:52:33;19.42;;;8.77;;
42098;SDS011;27758;55.900;8.516;2023-04-07T05:54:58;16.60;;;8.48;;
42098;SDS011;27758;55.900;8.516;2023-04-07T05:57:24;20.25;;;8.75;;
42098;SDS011;27758;55.900;8.516;2023-04-07T05:59:52;14.65;;;7.90;;
42098;SDS011;27758;55.900;8.516;2023-04-07T06:02:17;16.48;;;8.57;;
42098;SDS011;27758;55.900;8.516;2023-04-07T06:04:43;15.88;;;8.93;;
42098;SDS011;27758;55.900;8.516;2023-04-07T06:07:09;19.65;;;8.25;;
42098;SDS011;27758;55.900;8.516;2023-04-07T06:09:35;17.65;;;7.57;;
42098;SDS011;27758;55.900;8.516;2023-04-07T06:12:01;15.57;;;8.05;;
42098;SDS011;27758;55.900;8.516;2023-04-07T06:14:29;14.27;;;8.20;;
42098;SDS011;27758;55.900;8.516;2023-04-07T06:16:55;16.40;;;8.13;;
42098;SDS011;27758;55.900;8.516;2023-04-07T06:19:20;19.52;;;8.75;;
42098;SDS011;27758;55.900;8.516;2023-04-07T06:21:46;14.30;;;8.18;;
42098;SDS011;27758;55.900;8.516;2023-04-07T06:24:12;16.77;;;7.80;;
42098;SDS011;27758;55.900;8.516;2023-04-07T06:26:38;13.63;;;7.97;;
42098;SDS011;27758;55.900;8.516;2023-04-07T06:29:04;22.38;;;9.00;;
42098;SDS011;27758;55.900;8.516;2023-04-07T06:31:30;13.45;;;7.72;;
42098;SDS011;27758;55.900;8.516;2023-04-07T06:33:56;14.32;;;7.35;;
42098;SDS011;27758;55.900;8.516;2023-04-07T06:36:23;14.48;;;7.05;;
42098;SDS011;27758;55.900;8.516;2023-04-07T06:38:49;17.25;;;8.20;;
42098;SDS011;27758;55.900;8.516;2023-04-07T06:41:15;20.35;;;7.60;;
42098;SDS011;27758;55.900;8.516;2023-04-07T06:43:45;19.42;;;8.45;;
42098;SDS011;27758;55.900;8.516;2023-04-07T06:46:11;14.45;;;7.32;;
42098;SDS011;27758;55.900;8.516;2023-04-07T06:48:37;17.17;;;6.82;;
42098;SDS011;27758;55.900;8.516;2023-04-07T06:51:03;12.80;;;6.57;;
42098;SDS011;27758;55.900;8.516;2023-04-07T06:53:28;21.25;;;8.40;;
42098;SDS011;27758;55.900;8.516;2023-04-07T06:56:04;13.38;;;6.10;;
42098;SDS011;27758;55.900;8.516;2023-04-07T06:58:34;15.80;;;7.03;;
42098;SDS011;27758;55.900;8.516;2023-04-07T07:01:02;17.10;;;6.60;;
42098;SDS011;27758;55.900;8.516;2023-04-07T07:03:29;12.80;;;6.53;;
42098;SDS011;27758;55.900;8.516;2023-04-07T07:05:56;13.27;;;6.18;;
42098;SDS011;27758;55.900;8.516;2023-04-07T07:08:22;12.52;;;6.25;;
42098;SDS011;27758;55.900;8.516;2023-04-07T07:10:49;10.63;;;6.43;;
42098;SDS011;27758;55.900;8.516;2023-04-07T07:13:15;14.75;;;6.00;;
42098;SDS011;27758;55.900;8.516;2023-04-07T07:15:40;13.07;;;6.40;;
42098;SDS011;27758;55.900;8.516;2023-04-07T07:18:11;14.07;;;5.57;;
42098;SDS011;27758;55.900;8.516;2023-04-07T07:20:38;9.68;;;5.35;;
42098;SDS011;27758;55.900;8.516;2023-04-07T07:23:04;13.55;;;6.20;;
42098;SDS011;27758;55.900;8.516;2023-04-07T07:25:30;12.05;;;5.47;;
42098;SDS011;27758;55.900;8.516;2023-04-07T07:27:55;13.38;;;5.55;;
42098;SDS011;27758;55.900;8.516;2023-04-07T07:30:21;12.25;;;5.75;;
42098;SDS011;27758;55.900;8.516;2023-04-07T07:32:48;12.10;;;5.97;;
42098;SDS011;27758;55.900;8.516;2023-04-07T07:35:14;13.63;;;5.82;;
42098;SDS011;27758;55.900;8.516;2023-04-07T07:37:41;14.38;;;5.57;;
42098;SDS011;27758;55.900;8.516;2023-04-07T07:40:08;7.15;;;4.35;;
42098;SDS011;27758;55.900;8.516;2023-04-07T07:42:35;12.10;;;5.22;;
42098;SDS011;27758;55.900;8.516;2023-04-07T07:45:01;12.20;;;5.20;;
42098;SDS011;27758;55.900;8.516;2023-04-07T07:47:27;10.88;;;4.85;;
42098;SDS011;27758;55.900;8.516;2023-04-07T07:49:53;13.35;;;5.25;;
42098;SDS011;27758;55.900;8.516;2023-04-07T07:52:18;9.23;;;4.78;;
42098;SDS011;27758;55.900;8.516;2023-04-07T07:54:48;12.30;;;5.78;;
42098;SDS011;27758;55.900;8.516;2023-04-07T07:57:14;11.07;;;5.10;;
42098;SDS011;27758;55.900;8.516;2023-04-07T07:59:40;12.43;;;4.80;;
42098;SDS011;27758;55.900;8.516;2023-04-07T08:02:06;12.52;;;5.15;;
42098;SDS011;27758;55.900;8.516;2023-04-07T08:04:32;9.23;;;4.00;;
42098;SDS011;27758;55.900;8.516;2023-04-07T08:06:59;9.75;;;5.55;;
42098;SDS011;27758;55.900;8.516;2023-04-07T08:09:24;11.80;;;5.07;;
42098;SDS011;27758;55.900;8.516;2023-04-07T08:11:50;10.60;;;4.70;;
42098;SDS011;27758;55.900;8.516;2023-04-07T08:14:16;9.95;;;5.45;;
42098;SDS011;27758;55.900;8.516;2023-04-07T08:16:42;8.00;;;4.43;;
42098;SDS011;27758;55.900;8.516;2023-04-07T08:19:09;10.68;;;4.97;;
42098;SDS011;27758;55.900;8.516;2023-04-07T08:21:35;11.88;;;4.90;;
42098;SDS011;27758;55.900;8.516;2023-04-07T08:24:01;7.97;;;4.82;;
42098;SDS011;27758;55.900;8.516;2023-04-07T08:26:27;7.85;;;4.20;;
42098;SDS011;27758;55.900;8.516;2023-04-07T08:28:52;11.38;;;4.78;;
42098;SDS011;27758;55.900;8.516;2023-04-07T08:31:20;12.88;;;4.78;;
42098;SDS011;27758;55.900;8.516;2023-04-07T08:33:46;8.02;;;4.03;;
42098;SDS011;27758;55.900;8.516;2023-04-07T08:36:11;7.15;;;4.55;;
42098;SDS011;27758;55.900;8.516;2023-04-07T08:38:37;10.07;;;4.00;;
42098;SDS011;27758;55.900;8.516;2023-04-07T08:41:05;8.43;;;4.68;;
42098;SDS011;27758;55.900;8.516;2023-04-07T08:43:35;11.32;;;4.60;;
42098;SDS011;27758;55.900;8.516;2023-04-07T08:46:03;13.43;;;4.75;;
42098;SDS011;27758;55.900;8.516;2023-04-07T08:48:30;6.80;;;4.60;;
42098;SDS011;27758;55.900;8.516;2023-04-07T08:51:05;9.15;;;4.55;;
42098;SDS011;27758;55.900;8.516;2023-04-07T08:53:42;6.72;;;4.00;;
42098;SDS011;27758;55.900;8.516;2023-04-07T08:56:14;6.70;;;3.55;;
42098;SDS011;27758;55.900;8.516;2023-04-07T08:58:46;9.00;;;4.20;;
42098;SDS011;27758;55.900;8.516;2023-04-07T09:01:12;13.40;;;4.97;;
42098;SDS011;27758;55.900;8.516;2023-04-07T09:03:41;14.65;;;4.93;;
42098;SDS011;27758;55.900;8.516;2023-04-07T09:06:08;9.02;;;4.70;;
42098;SDS011;27758;55.900;8.516;2023-04-07T09:08:35;9.02;;;3.70;;
42098;SDS011;27758;55.900;8.516;2023-04-07T09:11:01;10.27;;;4.38;;
42098;SDS011;27758;55.900;8.516;2023-04-07T09:13:27;8.77;;;4.30;;
42098;SDS011;27758;55.900;8.516;2023-04-07T09:15:53;8.18;;;4.43;;
42098;SDS011;27758;55.900;8.516;2023-04-07T09:18:18;9.20;;;3.95;;
42098;SDS011;27758;55.900;8.516;2023-04-07T09:21:06;6.93;;;3.50;;
42098;SDS011;27758;55.900;8.516;2023-04-07T09:23:37;5.82;;;3.38;;
42098;SDS011;27758;55.900;8.516;2023-04-07T09:28:43;9.77;;;4.03;;
42098;SDS011;27758;55.900;8.516;2023-04-07T09:31:10;9.93;;;4.15;;
42098;SDS011;27758;55.900;8.516;2023-04-07T09:33:35;9.88;;;3.95;;
42098;SDS011;27758;55.900;8.516;2023-04-07T09:36:02;8.95;;;4.05;;
42098;SDS011;27758;55.900;8.516;2023-04-07T09:38:33;6.90;;;4.00;;
42098;SDS011;27758;55.900;8.516;2023-04-07T09:41:10;7.18;;;3.90;;
42098;SDS011;27758;55.900;8.516;2023-04-07T09:43:39;7.93;;;4.30;;
42098;SDS011;27758;55.900;8.516;2023-04-07T09:46:09;7.25;;;4.00;;
42098;SDS011;27758;55.900;8.516;2023-04-07T09:48:36;7.47;;;3.58;;
42098;SDS011;27758;55.900;8.516;2023-04-07T09:51:07;6.80;;;3.88;;
42098;SDS011;27758;55.900;8.516;2023-04-07T09:53:43;8.13;;;3.80;;
42098;SDS011;27758;55.900;8.516;2023-04-07T09:56:14;8.10;;;3.83;;
42098;SDS011;27758;55.900;8.516;2023-04-07T09:58:42;7.80;;;3.50;;
42098;SDS011;27758;55.900;8.516;2023-04-07T10:01:09;7.82;;;4.20;;
42098;SDS011;27758;55.900;8.516;2023-04-07T10:03:36;9.05;;;4.75;;
42098;SDS011;27758;55.900;8.516;2023-04-07T10:06:03;6.97;;;4.20;;
42098;SDS011;27758;55.900;8.516;2023-04-07T10:08:31;8.38;;;4.30;;
42098;SDS011;27758;55.900;8.516;2023-04-07T10:11:03;9.38;;;4.93;;
42098;SDS011;27758;55.900;8.516;2023-04-07T10:13:30;9.77;;;4.60;;
42098;SDS011;27758;55.900;8.516;2023-04-07T10:15:57;7.82;;;4.78;;
42098;SDS011;27758;55.900;8.516;2023-04-07T10:18:28;12.40;;;5.57;;
42098;SDS011;27758;55.900;8.516;2023-04-07T10:20:56;9.70;;;4.50;;
42098;SDS011;27758;55.900;8.516;2023-04-07T10:26:10;9.50;;;5.18;;
42098;SDS011;27758;55.900;8.516;2023-04-07T10:28:39;6.93;;;4.25;;
42098;SDS011;27758;55.900;8.516;2023-04-07T10:31:08;7.38;;;4.63;;
42098;SDS011;27758;55.900;8.516;2023-04-07T10:33:53;8.35;;;4.90;;
42098;SDS011;27758;55.900;8.516;2023-04-07T10:36:20;7.65;;;4.72;;
42098;SDS011;27758;55.900;8.516;2023-04-07T10:41:31;7.53;;;4.88;;
42098;SDS011;27758;55.900;8.516;2023-04-07T10:49:12;8.40;;;4.80;;
42098;SDS011;27758;55.900;8.516;2023-04-07T10:51:39;8.55;;;4.65;;
42098;SDS011;27758;55.900;8.516;2023-04-07T10:54:14;8.05;;;4.75;;
42098;SDS011;27758;55.900;8.516;2023-04-07T10:59:36;9.35;;;4.75;;
42098;SDS011;27758;55.900;8.516;2023-04-07T11:04:39;5.65;;;4.20;;
42098;SDS011;27758;55.900;8.516;2023-04-07T11:07:06;7.25;;;4.32;;
42098;SDS011;27758;55.900;8.516;2023-04-07T11:09:32;9.38;;;4.78;;
42098;SDS011;27758;55.900;8.516;2023-04-07T11:11:58;8.38;;;4.97;;
42098;SDS011;27758;55.900;8.516;2023-04-07T11:14:24;6.75;;;4.47;;
42098;SDS011;27758;55.900;8.516;2023-04-07T11:16:51;7.15;;;4.18;;
42098;SDS011;27758;55.900;8.516;2023-04-07T11:19:17;8.38;;;4.25;;
42098;SDS011;27758;55.900;8.516;2023-04-07T11:21:43;6.88;;;4.18;;
42098;SDS011;27758;55.900;8.516;2023-04-07T11:24:09;8.07;;;4.60;;
42098;SDS011;27758;55.900;8.516;2023-04-07T11:26:41;7.07;;;4.43;;
42098;SDS011;27758;55.900;8.516;2023-04-07T11:29:07;7.60;;;4.68;;
42098;SDS011;27758;55.900;8.516;2023-04-07T11:31:35;7.57;;;4.72;;
42098;SDS011;27758;55.900;8.516;2023-04-07T11:34:03;7.53;;;4.80;;
42098;SDS011;27758;55.900;8.516;2023-04-07T11:36:30;5.90;;;4.10;;
42098;SDS011;27758;55.900;8.516;2023-04-07T11:38:57;7.35;;;4.43;;
42098;SDS011;27758;55.900;8.516;2023-04-07T11:41:25;7.53;;;4.10;;
42098;SDS011;27758;55.900;8.516;2023-04-07T11:44:08;6.72;;;4.05;;
42098;SDS011;27758;55.900;8.516;2023-04-07T11:46:35;7.07;;;4.68;;
42098;SDS011;27758;55.900;8.516;2023-04-07T11:49:12;8.10;;;4.38;;
42098;SDS011;27758;55.900;8.516;2023-04-07T11:51:40;7.32;;;4.90;;
42098;SDS011;27758;55.900;8.516;2023-04-07T11:54:08;6.20;;;4.03;;
42098;SDS011;27758;55.900;8.516;2023-04-07T11:56:42;6.93;;;4.35;;
42098;SDS011;27758;55.900;8.516;2023-04-07T11:59:15;10.90;;;5.50;;
42098;SDS011;27758;55.900;8.516;2023-04-07T12:01:47;6.45;;;4.53;;
42098;SDS011;27758;55.900;8.516;2023-04-07T12:04:14;8.80;;;4.45;;
42098;SDS011;27758;55.900;8.516;2023-04-07T12:06:40;8.75;;;4.88;;
42098;SDS011;27758;55.900;8.516;2023-04-07T12:09:08;7.63;;;4.07;;
42098;SDS011;27758;55.900;8.516;2023-04-07T12:11:49;7.00;;;3.90;;
42098;SDS011;27758;55.900;8.516;2023-04-07T12:14:15;6.22;;;3.55;;
42098;SDS011;27758;55.900;8.516;2023-04-07T12:16:41;7.13;;;4.15;;
42098;SDS011;27758;55.900;8.516;2023-04-07T12:19:06;10.18;;;3.65;;
42098;SDS011;27758;55.900;8.516;2023-04-07T12:21:32;7.60;;;4.13;;
42098;SDS011;27758;55.900;8.516;2023-04-07T12:23:58;7.60;;;3.75;;
42098;SDS011;27758;55.900;8.516;2023-04-07T12:26:23;6.15;;;3.88;;
42098;SDS011;27758;55.900;8.516;2023-04-07T12:28:49;8.50;;;3.80;;
42098;SDS011;27758;55.900;8.516;2023-04-07T12:31:18;7.70;;;3.53;;
42098;SDS011;27758;55.900;8.516;2023-04-07T12:33:44;8.50;;;3.47;;
42098;SDS011;27758;55.900;8.516;2023-04-07T12:36:10;5.72;;;4.00;;
42098;SDS011;27758;55.900;8.516;2023-04-07T12:38:36;6.03;;;3.45;;
42098;SDS011;27758;55.900;8.516;2023-04-07T12:41:05;6.85;;;3.13;;
42098;SDS011;27758;55.900;8.516;2023-04-07T12:43:30;4.18;;;2.83;;
42098;SDS011;27758;55.900;8.516;2023-04-07T12:45:56;7.25;;;3.13;;
42098;SDS011;27758;55.900;8.516;2023-04-07T12:48:22;3.22;;;2.50;;
42098;SDS011;27758;55.900;8.516;2023-04-07T12:50:50;6.93;;;3.15;;
42098;SDS011;27758;55.900;8.516;2023-04-07T12:53:16;5.18;;;2.28;;
42098;SDS011;27758;55.900;8.516;2023-04-07T12:55:42;6.47;;;2.50;;
42098;SDS011;27758;55.900;8.516;2023-04-07T12:58:07;5.68;;;2.75;;
42098;SDS011;27758;55.900;8.516;2023-04-07T13:00:33;4.53;;;2.65;;
42098;SDS011;27758;55.900;8.516;2023-04-07T13:02:59;4.70;;;2.10;;
42098;SDS011;27758;55.900;8.516;2023-04-07T13:05:25;4.22;;;2.08;;
42098;SDS011;27758;55.900;8.516;2023-04-07T13:07:51;4.90;;;2.00;;
42098;SDS011;27758;55.900;8.516;2023-04-07T13:10:17;4.80;;;1.65;;
42098;SDS011;27758;55.900;8.516;2023-04-07T13:12:42;2.42;;;1.25;;
42098;SDS011;27758;55.900;8.516;2023-04-07T13:15:08;2.38;;;1.40;;
42098;SDS011;27758;55.900;8.516;2023-04-07T13:17:34;4.93;;;1.58;;
42098;SDS011;27758;55.900;8.516;2023-04-07T13:20:03;2.28;;;1.40;;
42098;SDS011;27758;55.900;8.516;2023-04-07T13:22:30;2.33;;;0.93;;
42098;SDS011;27758;55.900;8.516;2023-04-07T13:24:56;1.90;;;1.30;;
42098;SDS011;27758;55.900;8.516;2023-04-07T13:27:21;1.50;;;0.90;;
42098;SDS011;27758;55.900;8.516;2023-04-07T13:29:47;2.50;;;1.42;;
42098;SDS011;27758;55.900;8.516;2023-04-07T13:32:13;3.90;;;1.13;;
42098;SDS011;27758;55.900;8.516;2023-04-07T13:34:40;2.22;;;1.20;;
42098;SDS011;27758;55.900;8.516;2023-04-07T13:37:06;3.55;;;1.35;;
42098;SDS011;27758;55.900;8.516;2023-04-07T13:39:32;2.63;;;1.02;;
42098;SDS011;27758;55.900;8.516;2023-04-07T13:41:58;2.92;;;1.60;;
42098;SDS011;27758;55.900;8.516;2023-04-07T13:44:26;5.15;;;1.08;;
42098;SDS011;27758;55.900;8.516;2023-04-07T13:49:22;2.05;;;0.80;;
42098;SDS011;27758;55.900;8.516;2023-04-07T13:51:48;3.90;;;1.08;;
42098;SDS011;27758;55.900;8.516;2023-04-07T13:54:15;3.72;;;1.30;;
42098;SDS011;27758;55.900;8.516;2023-04-07T13:56:42;2.20;;;1.10;;
42098;SDS011;27758;55.900;8.516;2023-04-07T13:59:08;2.65;;;1.38;;
42098;SDS011;27758;55.900;8.516;2023-04-07T14:01:34;3.85;;;1.52;;
42098;SDS011;27758;55.900;8.516;2023-04-07T14:04:02;1.40;;;0.95;;
42098;SDS011;27758;55.900;8.516;2023-04-07T14:06:28;5.05;;;1.52;;
42098;SDS011;27758;55.900;8.516;2023-04-07T14:08:55;6.55;;;2.60;;
42098;SDS011;27758;55.900;8.516;2023-04-07T14:11:22;1.15;;;1.00;;
42098;SDS011;27758;55.900;8.516;2023-04-07T14:13:48;1.65;;;1.13;;
42098;SDS011;27758;55.900;8.516;2023-04-07T14:16:15;1.77;;;1.15;;
42098;SDS011;27758;55.900;8.516;2023-04-07T14:18:41;3.83;;;1.40;;
42098;SDS011;27758;55.900;8.516;2023-04-07T14:21:07;2.17;;;1.10;;
42098;SDS011;27758;55.900;8.516;2023-04-07T14:23:36;1.35;;;0.90;;
42098;SDS011;27758;55.900;8.516;2023-04-07T14:26:02;3.50;;;1.25;;
42098;SDS011;27758;55.900;8.516;2023-04-07T14:28:27;2.33;;;0.80;;
42098;SDS011;27758;55.900;8.516;2023-04-07T14:30:54;1.38;;;1.10;;
42098;SDS011;27758;55.900;8.516;2023-04-07T14:33:24;3.05;;;1.10;;
42098;SDS011;27758;55.900;8.516;2023-04-07T14:35:50;3.63;;;1.48;;
42098;SDS011;27758;55.900;8.516;2023-04-07T14:38:16;2.30;;;1.00;;
42098;SDS011;27758;55.900;8.516;2023-04-07T14:40:45;2.38;;;1.25;;
42098;SDS011;27758;55.900;8.516;2023-04-07T14:43:11;4.10;;;1.08;;
42098;SDS011;27758;55.900;8.516;2023-04-07T14:45:38;1.48;;;1.00;;
42098;SDS011;27758;55.900;8.516;2023-04-07T14:48:03;2.38;;;1.17;;
42098;SDS011;27758;55.900;8.516;2023-04-07T14:50:32;4.55;;;1.50;;
42098;SDS011;27758;55.900;8.516;2023-04-07T14:52:58;2.05;;;1.05;;
42098;SDS011;27758;55.900;8.516;2023-04-07T14:55:25;1.60;;;1.20;;
42098;SDS011;27758;55.900;8.516;2023-04-07T14:57:51;3.42;;;1.00;;
42098;SDS011;27758;55.900;8.516;2023-04-07T15:00:19;1.40;;;0.98;;
42098;SDS011;27758;55.900;8.516;2023-04-07T15:02:44;2.92;;;0.90;;
42098;SDS011;27758;55.900;8.516;2023-04-07T15:05:10;1.27;;;0.93;;